createdAt,value
2023-01-19T07:43:17.125Z,994.57
2023-01-19T07:51:16.951Z,994.67
2023-01-19T10:09:15.541Z,997.12
2023-01-19T10:10:15.444Z,997.15
2023-01-19T10:11:15.520Z,997.13
2023-01-19T10:12:15.429Z,997.12
2023-01-19T10:13:15.511Z,997.15
2023-01-19T10:14:15.407Z,997.19
2023-01-19T10:15:15.475Z,997.22
2023-01-19T10:16:15.414Z,997.20
2023-01-19T10:17:15.470Z,997.21
2023-01-19T10:18:15.376Z,997.23
2023-01-19T10:19:15.422Z,997.21
2023-01-19T10:20:15.349Z,997.22
2023-01-19T10:21:15.425Z,997.28
2023-01-19T10:22:15.322Z,997.27
2023-01-19T10:23:15.378Z,997.32
2023-01-19T10:24:15.297Z,997.32
2023-01-19T10:25:15.358Z,997.33
2023-01-19T10:26:15.293Z,997.33
2023-01-19T10:27:15.324Z,997.37
2023-01-19T10:28:15.256Z,997.38
2023-01-19T10:29:15.568Z,997.38
2023-01-19T10:30:15.233Z,997.37
2023-01-19T10:31:15.484Z,997.43
2023-01-19T10:32:15.306Z,997.41
2023-01-19T10:33:15.287Z,997.43
2023-01-19T10:34:18.063Z,997.45
2023-01-19T10:35:15.253Z,997.42
2023-01-19T10:36:15.206Z,997.46
2023-01-19T10:37:15.339Z,997.47
2023-01-19T10:38:15.181Z,997.49
2023-01-19T10:39:15.317Z,997.50
2023-01-19T10:40:15.127Z,997.52
2023-01-19T10:41:15.188Z,997.50
2023-01-19T10:42:15.151Z,997.52
2023-01-19T10:43:15.215Z,997.56
2023-01-19T10:44:15.082Z,997.56
2023-01-19T10:45:15.194Z,997.62
2023-01-19T10:46:15.118Z,997.58
2023-01-19T10:47:16.171Z,997.62
2023-01-19T10:48:16.113Z,997.64
2023-01-19T10:49:15.097Z,997.66
2023-01-19T10:50:15.016Z,997.66
2023-01-19T10:51:15.081Z,997.66
2023-01-19T10:52:14.996Z,997.65
2023-01-19T10:53:15.108Z,997.65
2023-01-19T10:54:14.967Z,997.70
2023-01-19T10:55:15.066Z,997.67
2023-01-19T10:56:14.981Z,997.73
2023-01-19T10:57:15.050Z,997.68
2023-01-19T10:58:14.925Z,997.66
2023-01-19T10:59:15.061Z,997.68
2023-01-19T11:00:14.899Z,997.69
2023-01-19T11:01:15.397Z,997.71
2023-01-19T11:02:15.125Z,997.72
2023-01-19T11:03:14.968Z,997.69
2023-01-19T11:04:14.886Z,997.71
2023-01-19T11:05:14.925Z,997.69
2023-01-19T11:06:14.868Z,997.74
2023-01-19T11:07:14.906Z,997.70
2023-01-19T11:08:14.829Z,997.69
2023-01-19T11:09:14.912Z,997.72
2023-01-19T11:10:14.805Z,997.75
2023-01-19T11:11:14.876Z,997.71
2023-01-19T11:12:14.773Z,997.76
2023-01-19T11:13:14.844Z,997.73
2023-01-19T11:14:14.754Z,997.71
2023-01-19T11:15:14.833Z,997.72
2023-01-19T11:16:14.764Z,997.73
2023-01-19T11:17:14.801Z,997.76
2023-01-19T11:18:14.716Z,997.73
2023-01-19T11:19:14.772Z,997.80
2023-01-19T11:20:14.686Z,997.74
2023-01-19T11:21:14.756Z,997.75
2023-01-19T11:22:14.666Z,997.81
2023-01-19T11:23:14.716Z,997.74
2023-01-19T11:24:14.652Z,997.73
2023-01-19T11:25:14.757Z,997.68
2023-01-19T11:26:14.627Z,997.69
2023-01-19T11:27:14.682Z,997.71
2023-01-19T11:28:14.603Z,997.68
2023-01-19T11:29:14.675Z,997.66
2023-01-19T11:30:14.591Z,997.67
2023-01-19T11:31:14.866Z,997.68
2023-01-19T11:32:14.561Z,997.70
2023-01-19T11:33:14.726Z,997.68
2023-01-19T11:34:14.539Z,997.67
2023-01-19T11:35:14.611Z,997.69
2023-01-19T11:36:14.518Z,997.68
2023-01-19T11:37:14.585Z,997.67
2023-01-19T11:38:14.495Z,997.69
2023-01-19T11:39:14.548Z,997.69
2023-01-19T11:40:14.482Z,997.69
2023-01-19T11:41:14.539Z,997.72
2023-01-19T11:42:14.453Z,997.70
2023-01-19T11:43:14.515Z,997.70
2023-01-19T11:44:14.426Z,997.71
2023-01-19T11:45:14.492Z,997.71
2023-01-19T11:46:14.406Z,997.69
2023-01-19T11:47:14.497Z,997.69
2023-01-19T11:48:14.405Z,997.68
2023-01-19T11:49:14.467Z,997.70
2023-01-19T11:50:14.365Z,997.68
2023-01-19T11:51:14.436Z,997.69
2023-01-19T11:52:14.570Z,997.70
2023-01-19T11:53:14.414Z,997.76
2023-01-19T11:54:14.322Z,997.74
2023-01-19T11:55:14.394Z,997.78
2023-01-19T11:56:14.309Z,997.82
2023-01-19T11:57:14.364Z,997.71
2023-01-19T11:58:14.287Z,997.77
2023-01-19T11:59:14.352Z,997.78
2023-01-19T12:00:14.260Z,997.74
2023-01-19T12:01:14.370Z,997.75
2023-01-19T12:02:14.322Z,997.75
2023-01-19T12:03:14.376Z,997.77
2023-01-19T12:04:14.257Z,997.77
2023-01-19T12:05:14.279Z,997.77
2023-01-19T12:06:14.211Z,997.80
2023-01-19T12:07:14.259Z,997.79
2023-01-19T12:08:14.186Z,997.81
2023-01-19T12:09:14.237Z,997.82
2023-01-19T12:10:14.160Z,997.85
2023-01-19T12:11:14.208Z,997.88
2023-01-19T12:12:14.137Z,997.82
2023-01-19T12:13:14.212Z,997.87
2023-01-19T12:14:14.128Z,997.84
2023-01-19T12:15:14.180Z,997.83
2023-01-19T12:16:14.112Z,997.81
2023-01-19T12:17:14.166Z,997.84
2023-01-19T12:18:14.083Z,997.78
2023-01-19T12:19:14.135Z,997.78
2023-01-19T12:20:14.068Z,997.82
2023-01-19T12:21:14.148Z,997.80
2023-01-19T12:22:14.035Z,997.78
2023-01-19T12:23:14.095Z,997.84
2023-01-19T12:24:14.045Z,997.85
2023-01-19T12:25:14.077Z,997.90
2023-01-19T12:26:13.981Z,997.80
2023-01-19T12:27:14.054Z,997.85
2023-01-19T12:28:13.969Z,997.83
2023-01-19T12:29:14.034Z,997.85
2023-01-19T12:30:13.957Z,997.85
2023-01-19T12:31:14.109Z,997.87
2023-01-19T12:32:13.949Z,997.86
2023-01-19T12:33:13.990Z,997.89
2023-01-19T12:34:13.899Z,997.90
2023-01-19T12:35:13.959Z,997.93
2023-01-19T12:36:13.875Z,997.95
2023-01-19T12:37:13.947Z,997.96
2023-01-19T12:38:13.869Z,998.01
2023-01-19T12:39:13.926Z,998.01
2023-01-19T12:40:13.833Z,998.00
2023-01-19T12:41:13.898Z,998.06
2023-01-19T12:42:13.813Z,998.03
2023-01-19T12:43:13.955Z,998.02
2023-01-19T12:44:13.875Z,998.02
2023-01-19T12:45:13.854Z,998.06
2023-01-19T12:46:13.805Z,998.03
2023-01-19T12:47:13.837Z,998.06
2023-01-19T12:48:13.754Z,998.03
2023-01-19T12:49:13.820Z,998.06
2023-01-19T12:50:13.728Z,998.06
2023-01-19T12:51:13.989Z,998.06
2023-01-19T12:52:13.719Z,998.04
2023-01-19T12:53:13.769Z,998.11
2023-01-19T12:54:13.684Z,998.08
2023-01-19T12:55:13.758Z,998.14
2023-01-19T12:56:13.662Z,998.10
2023-01-19T12:57:13.718Z,998.13
2023-01-19T12:58:13.644Z,998.11
2023-01-19T12:59:14.714Z,998.12
2023-01-19T13:00:14.700Z,998.15
2023-01-19T13:01:13.823Z,998.07
2023-01-19T13:02:13.713Z,998.03
2023-01-19T13:03:13.663Z,998.05
2023-01-19T13:04:13.579Z,998.13
2023-01-19T13:05:13.642Z,998.08
2023-01-19T13:06:13.571Z,998.09
2023-01-19T13:07:13.628Z,998.12
2023-01-19T13:08:13.535Z,998.12
2023-01-19T13:09:13.600Z,998.10
2023-01-19T13:10:13.513Z,998.16
2023-01-19T13:11:13.574Z,998.09
2023-01-19T13:12:13.488Z,998.17
2023-01-19T13:13:13.554Z,998.12
2023-01-19T13:14:13.470Z,998.13
2023-01-19T13:15:13.545Z,998.15
2023-01-19T13:16:13.485Z,998.15
2023-01-19T13:17:13.511Z,998.20
2023-01-19T13:18:13.421Z,998.16
2023-01-19T13:19:13.480Z,998.16
2023-01-19T13:20:13.512Z,998.18
2023-01-19T13:21:13.819Z,998.15
2023-01-19T13:22:13.380Z,998.17
2023-01-19T13:23:13.441Z,998.15
2023-01-19T13:24:13.385Z,998.21
2023-01-19T13:25:13.651Z,998.18
2023-01-19T13:26:13.342Z,998.26
2023-01-19T13:27:13.413Z,998.22
2023-01-19T13:28:13.335Z,998.22
2023-01-19T13:29:13.385Z,998.26
2023-01-19T13:30:13.297Z,998.20
2023-01-19T13:31:13.552Z,998.25
2023-01-19T13:32:13.291Z,998.26
2023-01-19T13:33:13.357Z,998.20
2023-01-19T13:34:13.257Z,998.27
2023-01-19T13:35:13.508Z,998.30
2023-01-19T13:36:13.246Z,998.26
2023-01-19T13:37:13.290Z,998.27
2023-01-19T13:38:13.210Z,998.28
2023-01-19T13:39:13.284Z,998.30
2023-01-19T13:40:13.193Z,998.32
2023-01-19T13:41:13.255Z,998.29
2023-01-19T13:42:13.169Z,998.34
2023-01-19T13:43:13.229Z,998.36
2023-01-19T13:44:13.142Z,998.36
2023-01-19T13:45:13.211Z,998.35
2023-01-19T13:46:13.158Z,998.39
2023-01-19T13:47:13.211Z,998.40
2023-01-19T13:48:13.104Z,998.38
2023-01-19T13:49:13.165Z,998.36
2023-01-19T13:50:13.077Z,998.40
2023-01-19T13:51:13.140Z,998.41
2023-01-19T13:52:13.068Z,998.41
2023-01-19T13:53:13.132Z,998.46
2023-01-19T13:54:13.072Z,998.44
2023-01-19T13:55:13.124Z,998.41
2023-01-19T13:56:13.016Z,998.44
2023-01-19T13:57:13.086Z,998.46
2023-01-19T13:58:13.016Z,998.50
2023-01-19T13:59:13.072Z,998.52
2023-01-19T14:00:13.165Z,998.49
2023-01-19T14:01:13.099Z,998.53
2023-01-19T14:02:13.020Z,998.55
2023-01-19T14:03:13.076Z,998.54
2023-01-19T14:04:12.943Z,998.54
2023-01-19T14:05:12.989Z,998.50
2023-01-19T14:06:12.921Z,998.60
2023-01-19T14:07:13.361Z,998.61
2023-01-19T14:08:12.937Z,998.64
2023-01-19T14:09:12.937Z,998.64
2023-01-19T14:54:12.462Z,999.03
2023-01-19T15:43:11.863Z,999.47
2023-01-19T15:55:11.804Z,999.62
2023-01-19T16:00:11.747Z,999.66
2023-01-19T16:01:11.781Z,999.67
2023-01-19T16:02:11.956Z,999.72
2023-01-19T16:03:11.640Z,999.71
2023-01-19T16:04:11.721Z,999.74
2023-01-19T16:05:12.262Z,999.74
2023-01-19T16:06:11.682Z,999.75
2023-01-19T16:07:11.598Z,999.71
2023-01-19T16:08:11.743Z,999.74
2023-01-19T16:09:11.575Z,999.73
2023-01-19T16:10:11.994Z,999.74
2023-01-19T16:11:11.549Z,999.77
2023-01-19T16:12:11.622Z,999.77
2023-01-19T16:13:11.543Z,999.77
2023-01-19T16:14:11.607Z,999.79
2023-01-19T16:15:11.818Z,999.79
2023-01-19T16:16:11.598Z,999.79
2023-01-19T16:17:11.486Z,999.81
2023-01-19T16:18:11.569Z,999.79
2023-01-19T16:19:11.469Z,999.78
2023-01-19T16:20:14.477Z,999.83
